Time;durP1;ratioP1;P1;durP2;ratioP2;P2;SDS_P1;SDS_P2;PMS_P1;PMS_P2;Temp;Humidity;BMP_temperature;BMP_pressure;BME280_temperature;BME280_humidity;BME280_pressure;Samples;Min_cycle;Max_cycle;Signal;HPM_P1;HPM_P2
2021/09/11 00:01:03;;;;;;;;;;;19.70;99.90;;;;;;1976124;72;20474;-67
2021/09/11 00:03:30;;;;;;;;;;;19.70;99.90;;;;;;1978654;72;20405;-68
2021/09/11 00:05:57;;;;;;;;;;;19.80;99.90;;;;;;1974456;72;20170;-68
2021/09/11 00:08:24;;;;;;;;;;;19.70;99.90;;;;;;1952115;72;20157;-68
2021/09/11 00:10:50;;;;;;;;;;;19.70;99.90;;;;;;1932648;72;20247;-67
2021/09/11 00:13:17;;;;;;;;;;;19.60;99.90;;;;;;1972575;72;20162;-68
2021/09/11 00:15:44;;;;;;;;;;;19.60;99.90;;;;;;1970427;72;20111;-68
2021/09/11 00:18:11;;;;;;;;;;;19.50;99.90;;;;;;1917537;74;20333;-68
2021/09/11 00:20:38;;;;;;;;;;;19.60;99.90;;;;;;1919064;72;20465;-68
2021/09/11 00:23:06;;;;;;;;;;;19.60;99.90;;;;;;1930923;72;20149;-68
2021/09/11 00:25:33;;;;;;;;;;;19.60;99.90;;;;;;1946227;72;20397;-68
2021/09/11 00:27:59;;;;;;;;;;;19.60;99.90;;;;;;1976764;72;20164;-68
2021/09/11 00:30:26;;;;;;;;;;;19.60;99.90;;;;;;1966891;72;20862;-69
2021/09/11 00:32:53;;;;;;;;;;;19.70;99.90;;;;;;1942546;72;20152;-68
2021/09/11 00:35:20;;;;;;;;;;;19.60;99.90;;;;;;1943581;74;20471;-69
2021/09/11 00:37:47;;;;;;;;;;;19.60;99.90;;;;;;1941605;72;20192;-68
2021/09/11 00:40:15;;;;;;;;;;;19.60;99.90;;;;;;1976073;72;20174;-68
2021/09/11 00:42:47;;;;;;;;;;;19.60;99.90;;;;;;1929109;72;20461;-68
2021/09/11 00:45:11;;;;;;;;;;;19.60;99.90;;;;;;1940975;74;20170;-68
2021/09/11 00:47:37;;;;;;;;;;;19.60;99.90;;;;;;1942400;74;20295;-68
2021/09/11 00:50:04;;;;;;;;;;;19.60;99.90;;;;;;1940107;72;20181;-68
2021/09/11 00:52:31;;;;;;;;;;;19.50;99.90;;;;;;1941617;72;20107;-67
2021/09/11 00:54:58;;;;;;;;;;;19.60;99.90;;;;;;1941934;72;20173;-67
2021/09/11 00:57:25;;;;;;;;;;;19.60;99.90;;;;;;1924474;74;20143;-67
2021/09/11 00:59:53;;;;;;;;;;;19.50;99.90;;;;;;1935567;74;20503;-67
2021/09/11 01:02:20;;;;;;;;;;;19.60;99.90;;;;;;1942085;74;20469;-67
2021/09/11 01:04:46;;;;;;;;;;;19.60;99.90;;;;;;1942519;74;20165;-67
2021/09/11 01:07:13;;;;;;;;;;;19.60;99.90;;;;;;1935591;72;20110;-68
2021/09/11 01:09:40;;;;;;;;;;;19.60;99.90;;;;;;1931017;74;20164;-66
2021/09/11 01:12:07;;;;;;;;;;;19.60;99.90;;;;;;1941263;72;20160;-67
2021/09/11 01:14:34;;;;;;;;;;;19.60;99.90;;;;;;1945630;73;20231;-67
2021/09/11 01:17:01;;;;;;;;;;;19.60;99.90;;;;;;1949987;72;20191;-67
2021/09/11 01:19:28;;;;;;;;;;;19.50;99.90;;;;;;1943017;74;20203;-67
2021/09/11 01:21:55;;;;;;;;;;;19.50;99.90;;;;;;1959887;72;20162;-68
2021/09/11 01:24:21;;;;;;;;;;;19.50;99.90;;;;;;1964344;72;20132;-68
2021/09/11 01:26:51;;;;;;;;;;;19.60;99.90;;;;;;1943349;74;20218;-67
2021/09/11 01:29:18;;;;;;;;;;;19.60;99.90;;;;;;1943379;72;20171;-67
2021/09/11 01:31:45;;;;;;;;;;;19.50;99.90;;;;;;1926118;74;20169;-68
2021/09/11 01:34:12;;;;;;;;;;;19.50;99.90;;;;;;1924760;72;20401;-68
2021/09/11 01:36:39;;;;;;;;;;;19.40;99.90;;;;;;1955258;72;20307;-68
2021/09/11 01:39:05;;;;;;;;;;;19.50;99.90;;;;;;1959628;72;20499;-68
2021/09/11 01:41:32;;;;;;;;;;;19.50;99.90;;;;;;1975303;72;20149;-68
2021/09/11 01:43:59;;;;;;;;;;;19.60;99.90;;;;;;1978856;72;20424;-68
2021/09/11 01:46:26;;;;;;;;;;;19.60;99.90;;;;;;1944288;72;20198;-68
2021/09/11 01:48:52;;;;;;;;;;;19.60;99.90;;;;;;1938510;72;20148;-69
2021/09/11 01:51:19;;;;;;;;;;;19.50;99.90;;;;;;1944015;74;20168;-68
2021/09/11 01:53:46;;;;;;;;;;;19.50;99.90;;;;;;1960597;72;20161;-68
2021/09/11 01:56:13;;;;;;;;;;;19.60;99.90;;;;;;1973766;72;20161;-67
2021/09/11 01:58:40;;;;;;;;;;;19.60;99.90;;;;;;1977586;72;20166;-67
2021/09/11 02:01:06;;;;;;;;;;;19.60;99.90;;;;;;1977692;72;20149;-67
2021/09/11 02:03:33;;;;;;;;;;;19.50;99.90;;;;;;1931346;72;20158;-68
2021/09/11 02:06:00;;;;;;;;;;;19.50;99.90;;;;;;1978212;72;20155;-68
2021/09/11 02:08:27;;;;;;;;;;;19.50;99.90;;;;;;1944583;72;20152;-68
2021/09/11 02:10:54;;;;;;;;;;;19.60;99.90;;;;;;1954745;72;20236;-67
2021/09/11 02:13:20;;;;;;;;;;;19.60;99.90;;;;;;1965625;72;20221;-69
2021/09/11 02:15:47;;;;;;;;;;;19.60;99.90;;;;;;1919566;72;20265;-68
2021/09/11 02:18:14;;;;;;;;;;;19.70;99.90;;;;;;1941885;72;20177;-68
2021/09/11 02:20:41;;;;;;;;;;;19.70;99.90;;;;;;1949358;72;20428;-68
2021/09/11 02:23:07;;;;;;;;;;;19.60;99.90;;;;;;1925726;74;20328;-67
2021/09/11 02:25:35;;;;;;;;;;;19.60;99.90;;;;;;1936085;72;20453;-68
2021/09/11 02:28:02;;;;;;;;;;;19.60;99.90;;;;;;1940803;72;20839;-66
2021/09/11 02:30:28;;;;;;;;;;;19.70;99.90;;;;;;1941252;72;20167;-68
2021/09/11 02:32:55;;;;;;;;;;;19.60;99.90;;;;;;1953498;72;20174;-68
2021/09/11 02:35:22;;;;;;;;;;;19.60;99.90;;;;;;1959180;72;20233;-67
2021/09/11 02:37:49;;;;;;;;;;;19.70;99.90;;;;;;1952515;72;20240;-68
2021/09/11 02:40:16;;;;;;;;;;;19.60;99.90;;;;;;1965643;72;20258;-68
2021/09/11 02:42:42;;;;;;;;;;;19.60;99.90;;;;;;1933555;74;20218;-67
2021/09/11 02:45:09;;;;;;;;;;;19.50;99.90;;;;;;1940119;72;20199;-68
2021/09/11 02:47:36;;;;;;;;;;;19.40;99.90;;;;;;1933936;72;20164;-67
2021/09/11 02:50:03;;;;;;;;;;;19.40;99.90;;;;;;1946613;72;20161;-68
2021/09/11 02:52:30;;;;;;;;;;;19.40;99.90;;;;;;1948076;72;20125;-67
2021/09/11 02:54:57;;;;;;;;;;;19.30;99.90;;;;;;1943363;73;20465;-68
2021/09/11 02:57:24;;;;;;;;;;;19.40;99.90;;;;;;1936563;72;20120;-68
2021/09/11 02:59:50;;;;;;;;;;;19.30;99.90;;;;;;1931328;74;20169;-68
2021/09/11 03:02:17;;;;;;;;;;;19.40;99.90;;;;;;1936700;72;20163;-68
2021/09/11 03:04:44;;;;;;;;;;;19.40;99.90;;;;;;1923593;75;20152;-68
2021/09/11 03:07:11;;;;;;;;;;;19.40;99.90;;;;;;1945296;72;20220;-68
2021/09/11 03:09:38;;;;;;;;;;;19.40;99.90;;;;;;1978522;72;20170;-68
2021/09/11 03:12:04;;;;;;;;;;;19.50;99.90;;;;;;1921222;72;20194;-68
2021/09/11 03:14:31;;;;;;;;;;;19.60;99.90;;;;;;1909673;75;20224;-68
2021/09/11 03:16:58;;;;;;;;;;;19.50;99.90;;;;;;1926172;72;20122;-68
2021/09/11 03:19:25;;;;;;;;;;;19.60;99.90;;;;;;1944999;72;20215;-67
2021/09/11 03:21:52;;;;;;;;;;;19.50;99.90;;;;;;1938820;72;20231;-68
2021/09/11 03:24:18;;;;;;;;;;;19.50;99.90;;;;;;1944419;72;20391;-68
2021/09/11 03:26:45;;;;;;;;;;;19.50;99.90;;;;;;1971750;72;20223;-68
2021/09/11 03:29:12;;;;;;;;;;;19.30;99.90;;;;;;1920895;72;20170;-68
2021/09/11 03:31:39;;;;;;;;;;;19.30;99.90;;;;;;1943153;72;20162;-68
2021/09/11 03:34:06;;;;;;;;;;;19.30;99.90;;;;;;1978460;72;20239;-68
2021/09/11 03:36:32;;;;;;;;;;;19.30;99.90;;;;;;1943380;72;20162;-68
2021/09/11 03:38:59;;;;;;;;;;;19.30;99.90;;;;;;1942036;74;20110;-68
2021/09/11 03:41:26;;;;;;;;;;;19.30;99.90;;;;;;1940482;72;20426;-68
2021/09/11 03:43:53;;;;;;;;;;;19.20;99.90;;;;;;1943579;72;20176;-68
2021/09/11 03:46:20;;;;;;;;;;;19.30;99.90;;;;;;1955576;72;20515;-68
2021/09/11 03:48:46;;;;;;;;;;;19.20;99.90;;;;;;1934248;72;20215;-68
2021/09/11 03:51:13;;;;;;;;;;;19.10;99.90;;;;;;1944272;73;20122;-68
2021/09/11 03:53:40;;;;;;;;;;;19.20;99.90;;;;;;1946459;74;20121;-67
2021/09/11 03:56:07;;;;;;;;;;;19.20;99.90;;;;;;1948072;72;20164;-68
2021/09/11 03:58:34;;;;;;;;;;;19.20;99.90;;;;;;1965363;72;20147;-69
2021/09/11 04:01:01;;;;;;;;;;;19.30;99.90;;;;;;1946143;74;20243;-68
2021/09/11 04:03:28;;;;;;;;;;;19.20;99.90;;;;;;1945509;72;20144;-68
2021/09/11 04:05:55;;;;;;;;;;;19.20;99.90;;;;;;1947297;74;20117;-69
2021/09/11 04:08:22;;;;;;;;;;;19.20;99.90;;;;;;1946796;72;20109;-68
2021/09/11 04:10:49;;;;;;;;;;;19.20;99.90;;;;;;1944779;72;20164;-68
2021/09/11 04:13:15;;;;;;;;;;;19.20;99.90;;;;;;1928767;72;20153;-69
2021/09/11 04:15:42;;;;;;;;;;;19.30;99.90;;;;;;1934840;72;20125;-68
2021/09/11 04:18:09;;;;;;;;;;;19.30;99.90;;;;;;1917693;74;20206;-69
2021/09/11 04:20:36;;;;;;;;;;;19.20;99.90;;;;;;1938923;72;20108;-69
2021/09/11 04:23:03;;;;;;;;;;;19.20;99.90;;;;;;1947355;72;20237;-68
2021/09/11 04:25:29;;;;;;;;;;;19.20;99.90;;;;;;1928253;74;20174;-70
2021/09/11 04:27:56;;;;;;;;;;;19.20;99.90;;;;;;1910315;75;20214;-70
2021/09/11 04:30:23;;;;;;;;;;;19.20;99.90;;;;;;1931934;73;20164;-69
2021/09/11 04:33:09;;;;;;;;;;;19.20;99.90;;;;;;1971039;72;20111;-70
2021/09/11 04:35:36;;;;;;;;;;;19.20;99.90;;;;;;1898775;75;20482;-69
2021/09/11 04:38:03;;;;;;;;;;;19.20;99.90;;;;;;1885729;76;20248;-68
2021/09/11 04:40:30;;;;;;;;;;;19.10;99.90;;;;;;1844220;78;20194;-68
2021/09/11 04:42:57;;;;;;;;;;;19.00;99.90;;;;;;1838774;78;20285;-69
2021/09/11 04:45:24;;;;;;;;;;;19.10;99.90;;;;;;1849176;78;20232;-69
2021/09/11 04:47:51;;;;;;;;;;;19.10;99.90;;;;;;1848851;78;20157;-68
2021/09/11 04:50:18;;;;;;;;;;;19.10;99.90;;;;;;1848785;78;20249;-68
2021/09/11 04:52:45;;;;;;;;;;;19.10;99.90;;;;;;1848954;78;20111;-68
2021/09/11 04:55:12;;;;;;;;;;;19.20;99.90;;;;;;1847705;77;20480;-68
2021/09/11 04:57:39;;;;;;;;;;;19.20;99.90;;;;;;1849733;77;20650;-68
2021/09/11 05:00:07;;;;;;;;;;;19.10;99.90;;;;;;1847551;77;20212;-68
2021/09/11 05:02:33;;;;;;;;;;;19.10;99.90;;;;;;1847910;78;20258;-67
2021/09/11 05:05:00;;;;;;;;;;;19.00;99.90;;;;;;1849069;77;20177;-68
2021/09/11 05:07:27;;;;;;;;;;;19.00;99.90;;;;;;1848149;78;20193;-68
2021/09/11 05:09:54;;;;;;;;;;;19.00;99.90;;;;;;1844601;78;20495;-67
2021/09/11 05:12:21;;;;;;;;;;;19.00;99.90;;;;;;1834424;77;20436;-67
2021/09/11 05:14:47;;;;;;;;;;;18.90;99.90;;;;;;1849723;78;20208;-67
2021/09/11 05:17:14;;;;;;;;;;;18.90;99.90;;;;;;1825075;78;20461;-67
2021/09/11 05:19:41;;;;;;;;;;;19.00;99.90;;;;;;1849645;77;20224;-68
2021/09/11 05:22:08;;;;;;;;;;;18.90;99.90;;;;;;1840542;76;20772;-66
2021/09/11 05:24:35;;;;;;;;;;;18.90;99.90;;;;;;1842144;77;20219;-69
2021/09/11 05:27:02;;;;;;;;;;;18.90;99.90;;;;;;1817616;78;20164;-67
2021/09/11 05:29:28;;;;;;;;;;;18.90;99.90;;;;;;1823324;78;20190;-68
2021/09/11 05:32:15;;;;;;;;;;;18.90;99.90;;;;;;1837356;77;20137;-68
2021/09/11 05:34:41;;;;;;;;;;;19.00;99.90;;;;;;1918327;71;20139;-68
2021/09/11 05:37:08;;;;;;;;;;;19.00;99.90;;;;;;1894345;76;20393;-68
2021/09/11 05:39:35;;;;;;;;;;;19.00;99.90;;;;;;1891741;76;20221;-69
2021/09/11 05:42:02;;;;;;;;;;;19.10;99.90;;;;;;1898445;75;20121;-68
2021/09/11 05:44:29;;;;;;;;;;;19.00;99.90;;;;;;1898565;76;20516;-69
2021/09/11 05:46:56;;;;;;;;;;;19.00;99.90;;;;;;1874884;76;20161;-68
2021/09/11 05:49:23;;;;;;;;;;;19.00;99.90;;;;;;1866948;76;20195;-69
2021/09/11 05:51:50;;;;;;;;;;;19.00;99.90;;;;;;1869737;76;20446;-69
2021/09/11 05:54:16;;;;;;;;;;;19.00;99.90;;;;;;1898730;76;20123;-68
2021/09/11 05:56:43;;;;;;;;;;;19.00;99.90;;;;;;1891627;76;20179;-69
2021/09/11 05:59:10;;;;;;;;;;;18.90;99.90;;;;;;1892529;74;20175;-69
2021/09/11 06:01:37;;;;;;;;;;;18.80;99.90;;;;;;1877772;76;20165;-68
2021/09/11 06:04:04;;;;;;;;;;;18.90;99.90;;;;;;1892116;76;20183;-69
2021/09/11 06:06:31;;;;;;;;;;;18.80;99.90;;;;;;1866714;76;20192;-69
2021/09/11 06:08:58;;;;;;;;;;;18.80;99.90;;;;;;1885430;76;20175;-69
2021/09/11 06:11:25;;;;;;;;;;;18.80;99.90;;;;;;1870671;76;20398;-69
2021/09/11 06:13:51;;;;;;;;;;;18.80;99.90;;;;;;1886541;74;20205;-68
2021/09/11 06:16:18;;;;;;;;;;;18.70;99.90;;;;;;1873557;74;20227;-68
2021/09/11 06:18:46;;;;;;;;;;;18.80;99.90;;;;;;1890118;76;20408;-67
2021/09/11 06:21:13;;;;;;;;;;;18.80;99.90;;;;;;1897109;76;20377;-69
2021/09/11 06:23:39;;;;;;;;;;;18.80;99.90;;;;;;1897568;74;20186;-70
2021/09/11 06:26:06;;;;;;;;;;;18.80;99.90;;;;;;1896998;76;20177;-69
2021/09/11 06:28:33;;;;;;;;;;;18.80;99.90;;;;;;1891052;76;20235;-69
2021/09/11 06:31:00;;;;;;;;;;;18.80;99.90;;;;;;1898172;76;20201;-70
2021/09/11 06:33:27;;;;;;;;;;;18.90;99.90;;;;;;1898546;76;20452;-69
2021/09/11 06:35:53;;;;;;;;;;;18.80;99.90;;;;;;1922398;74;20157;-67
2021/09/11 06:38:20;;;;;;;;;;;18.80;99.90;;;;;;1916458;74;20163;-70
2021/09/11 06:40:47;;;;;;;;;;;18.90;99.90;;;;;;1883839;76;20118;-68
2021/09/11 06:43:14;;;;;;;;;;;19.00;99.90;;;;;;1879187;76;20296;-67
2021/09/11 06:45:41;;;;;;;;;;;19.00;99.90;;;;;;1892416;76;20171;-68
2021/09/11 06:48:07;;;;;;;;;;;19.00;99.90;;;;;;1870392;75;20256;-69
2021/09/11 06:50:34;;;;;;;;;;;19.00;99.90;;;;;;1897673;75;20633;-69
2021/09/11 06:53:01;;;;;;;;;;;18.90;99.90;;;;;;1873009;76;20172;-69
2021/09/11 06:55:28;;;;;;;;;;;18.90;99.90;;;;;;1897634;75;20390;-70
2021/09/11 06:57:54;;;;;;;;;;;18.90;99.90;;;;;;1881833;76;20237;-70
2021/09/11 07:00:21;;;;;;;;;;;18.90;99.90;;;;;;1887208;74;20381;-70
2021/09/11 07:02:48;;;;;;;;;;;19.00;99.90;;;;;;1884545;76;20260;-71
2021/09/11 07:05:15;;;;;;;;;;;19.00;99.90;;;;;;1879415;74;20230;-71
2021/09/11 07:07:42;;;;;;;;;;;19.00;99.90;;;;;;1879172;76;20266;-69
2021/09/11 07:10:09;;;;;;;;;;;18.90;99.90;;;;;;1885971;76;20259;-69
2021/09/11 07:12:36;;;;;;;;;;;19.00;99.90;;;;;;1876616;76;20175;-68
2021/09/11 07:15:04;;;;;;;;;;;19.00;99.90;;;;;;1879180;76;20225;-70
2021/09/11 07:17:31;;;;;;;;;;;19.10;99.90;;;;;;1880305;74;20904;-69
2021/09/11 07:19:58;;;;;;;;;;;19.10;99.90;;;;;;1875865;76;20164;-70
2021/09/11 07:22:24;;;;;;;;;;;19.20;99.90;;;;;;1888885;75;20171;-70
2021/09/11 07:24:51;;;;;;;;;;;19.10;99.90;;;;;;1887431;76;20232;-70
2021/09/11 07:27:18;;;;;;;;;;;19.10;99.90;;;;;;1886153;74;20123;-70
2021/09/11 07:29:45;;;;;;;;;;;19.10;99.90;;;;;;1883953;76;20125;-71
2021/09/11 07:32:12;;;;;;;;;;;19.20;99.90;;;;;;1875312;76;20180;-69
2021/09/11 07:34:38;;;;;;;;;;;19.30;99.90;;;;;;1880391;75;20200;-69
2021/09/11 07:37:05;;;;;;;;;;;19.40;99.90;;;;;;1872115;74;20220;-69
2021/09/11 07:39:32;;;;;;;;;;;19.40;99.90;;;;;;1881127;74;20201;-69
2021/09/11 07:41:59;;;;;;;;;;;19.40;99.90;;;;;;1881100;74;20128;-71
2021/09/11 07:44:25;;;;;;;;;;;19.40;99.90;;;;;;1894194;76;20163;-71
2021/09/11 07:46:52;;;;;;;;;;;19.40;99.90;;;;;;1887192;76;20171;-69
2021/09/11 07:49:19;;;;;;;;;;;19.40;99.90;;;;;;1881148;74;20116;-68
2021/09/11 07:51:46;;;;;;;;;;;19.40;99.90;;;;;;1882133;74;20331;-70
2021/09/11 07:54:13;;;;;;;;;;;19.40;99.90;;;;;;1885004;76;20128;-70
2021/09/11 07:56:39;;;;;;;;;;;19.40;99.90;;;;;;1875121;75;20409;-68
2021/09/11 07:59:06;;;;;;;;;;;19.40;99.90;;;;;;1875270;76;20171;-68
2021/09/11 08:01:33;;;;;;;;;;;19.50;99.90;;;;;;1882952;74;20696;-70
2021/09/11 08:04:00;;;;;;;;;;;19.50;99.90;;;;;;1889540;76;20551;-69
2021/09/11 08:06:27;;;;;;;;;;;19.50;99.90;;;;;;1884312;76;20178;-69
2021/09/11 08:08:53;;;;;;;;;;;19.60;99.90;;;;;;1884352;74;20194;-69
2021/09/11 08:11:20;;;;;;;;;;;19.60;99.90;;;;;;1887537;74;20167;-69
2021/09/11 08:13:47;;;;;;;;;;;19.60;99.90;;;;;;1883877;74;20178;-68
2021/09/11 08:16:14;;;;;;;;;;;19.60;99.90;;;;;;1882660;75;20167;-68
2021/09/11 08:18:41;;;;;;;;;;;19.70;99.90;;;;;;1884636;75;20433;-69
2021/09/11 08:21:07;;;;;;;;;;;19.80;99.90;;;;;;1882847;74;20175;-70
2021/09/11 08:23:34;;;;;;;;;;;19.80;99.90;;;;;;1884801;74;20679;-69
2021/09/11 08:26:02;;;;;;;;;;;19.70;99.90;;;;;;1881971;74;20533;-69
2021/09/11 08:28:29;;;;;;;;;;;19.80;99.90;;;;;;1882077;74;20229;-68
2021/09/11 08:30:55;;;;;;;;;;;19.70;99.90;;;;;;1875998;74;20474;-70
2021/09/11 08:33:22;;;;;;;;;;;19.80;99.90;;;;;;1879176;74;20240;-70
2021/09/11 08:35:49;;;;;;;;;;;19.80;99.90;;;;;;1876387;76;20222;-69
2021/09/11 08:38:16;;;;;;;;;;;19.70;99.90;;;;;;1881181;76;20212;-69
2021/09/11 08:40:43;;;;;;;;;;;19.70;99.90;;;;;;1877867;76;20253;-68
2021/09/11 08:43:10;;;;;;;;;;;19.70;99.90;;;;;;1877531;76;20204;-68
2021/09/11 08:45:38;;;;;;;;;;;19.70;99.90;;;;;;1883823;76;20165;-68
2021/09/11 08:48:05;;;;;;;;;;;19.70;99.90;;;;;;1876541;76;20290;-69
2021/09/11 08:50:32;;;;;;;;;;;19.70;99.90;;;;;;1884562;75;20386;-69
2021/09/11 08:52:59;;;;;;;;;;;19.80;99.90;;;;;;1887369;76;20162;-70
2021/09/11 08:55:26;;;;;;;;;;;19.80;99.90;;;;;;1883710;76;20160;-69
2021/09/11 08:58:03;;;;;;;;;;;19.80;99.90;;;;;;1883171;76;20158;-69
2021/09/11 09:00:43;;;;;;;;;;;19.80;99.90;;;;;;1884173;74;20203;-68
2021/09/11 09:03:24;;;;;;;;;;;19.90;99.90;;;;;;1880962;76;20530;-68
2021/09/11 09:05:51;;;;;;;;;;;19.90;99.90;;;;;;1879784;76;20178;-68
2021/09/11 09:08:28;;;;;;;;;;;20.00;99.90;;;;;;1879144;76;20186;-69
2021/09/11 09:10:55;;;;;;;;;;;20.00;99.90;;;;;;1877893;76;20154;-70
2021/09/11 09:13:22;;;;;;;;;;;20.10;99.90;;;;;;1892957;76;20216;-70
2021/09/11 09:15:49;;;;;;;;;;;20.10;99.90;;;;;;1880245;75;20531;-70
2021/09/11 09:18:16;;;;;;;;;;;20.00;99.90;;;;;;1885390;76;20271;-70
2021/09/11 09:20:43;;;;;;;;;;;20.00;99.90;;;;;;1891551;76;20132;-70
2021/09/11 09:23:18;;;;;;;;;;;19.90;99.90;;;;;;1890283;76;21056;-70
2021/09/11 09:25:46;;;;;;;;;;;19.90;99.90;;;;;;1892547;76;21101;-70
2021/09/11 09:28:14;;;;;;;;;;;19.80;99.90;;;;;;1888659;76;20482;-70
2021/09/11 09:30:42;;;;;;;;;;;19.80;99.90;;;;;;1886240;76;20204;-70
2021/09/11 09:33:11;;;;;;;;;;;19.80;99.90;;;;;;1888332;76;20404;-69
2021/09/11 09:35:37;;;;;;;;;;;19.70;99.90;;;;;;1882564;76;20358;-70
2021/09/11 09:38:09;;;;;;;;;;;19.70;99.90;;;;;;1888444;76;20458;-70
2021/09/11 09:40:37;;;;;;;;;;;19.70;99.90;;;;;;1890331;74;20127;-70
2021/09/11 09:43:04;;;;;;;;;;;19.90;99.90;;;;;;1884897;74;20213;-70
2021/09/11 09:45:32;;;;;;;;;;;19.90;99.90;;;;;;1885350;74;20393;-70
2021/09/11 09:48:00;;;;;;;;;;;20.00;99.90;;;;;;1886099;74;20228;-69
2021/09/11 09:50:38;;;;;;;;;;;20.00;99.90;;;;;;1880404;74;20215;-70
2021/09/11 09:53:05;;;;;;;;;;;19.90;99.90;;;;;;1884942;74;20176;-69
2021/09/11 09:55:34;;;;;;;;;;;19.90;99.90;;;;;;1885171;74;20297;-68
2021/09/11 09:58:01;;;;;;;;;;;19.90;99.90;;;;;;1885434;74;20177;-69
2021/09/11 10:00:29;;;;;;;;;;;19.80;99.90;;;;;;1880694;74;20128;-69
2021/09/11 10:02:56;;;;;;;;;;;19.80;99.90;;;;;;1883696;74;20124;-68
2021/09/11 10:05:24;;;;;;;;;;;19.80;99.90;;;;;;1880703;76;20324;-69
2021/09/11 10:07:56;;;;;;;;;;;19.80;99.90;;;;;;1879199;75;20224;-69
2021/09/11 10:10:30;;;;;;;;;;;20.10;99.90;;;;;;1879902;76;20216;-68
2021/09/11 10:13:16;;;;;;;;;;;20.10;99.90;;;;;;1880714;76;20228;-69
2021/09/11 10:15:50;;;;;;;;;;;20.40;99.90;;;;;;1880661;76;20119;-69
2021/09/11 10:18:24;;;;;;;;;;;20.60;99.90;;;;;;1877576;75;20247;-68
2021/09/11 10:21:09;;;;;;;;;;;20.70;99.90;;;;;;1876484;76;20491;-68
2021/09/11 10:23:36;;;;;;;;;;;20.90;99.90;;;;;;1892913;74;20159;-69
2021/09/11 10:26:03;;;;;;;;;;;20.80;99.90;;;;;;1884496;74;20171;-69
2021/09/11 10:28:30;;;;;;;;;;;20.70;99.90;;;;;;1880217;76;20565;-69
2021/09/11 10:31:04;;;;;;;;;;;20.60;99.90;;;;;;1880268;76;20629;-69
2021/09/11 10:33:41;;;;;;;;;;;20.60;99.90;;;;;;1881868;76;20202;-69
2021/09/11 10:36:12;;;;;;;;;;;20.60;99.90;;;;;;1880877;76;20242;-69
2021/09/11 10:38:39;;;;;;;;;;;20.50;99.90;;;;;;1882028;76;20217;-69
2021/09/11 10:41:17;;;;;;;;;;;20.60;99.90;;;;;;1881618;74;20163;-69
2021/09/11 10:43:59;;;;;;;;;;;20.60;99.90;;;;;;1884181;76;20128;-68
2021/09/11 10:46:27;;;;;;;;;;;20.70;99.90;;;;;;1879072;76;20175;-69
2021/09/11 10:48:56;;;;;;;;;;;20.70;99.90;;;;;;1873089;76;20228;-69
2021/09/11 10:51:24;;;;;;;;;;;20.80;99.90;;;;;;1881886;76;20135;-68
2021/09/11 10:54:08;;;;;;;;;;;20.80;99.90;;;;;;1877332;76;20152;-70
2021/09/11 10:56:36;;;;;;;;;;;20.80;99.90;;;;;;1879458;76;20203;-69
2021/09/11 10:59:16;;;;;;;;;;;20.70;99.90;;;;;;1879816;76;20232;-70
2021/09/11 11:02:01;;;;;;;;;;;20.70;99.90;;;;;;1877472;74;20163;-69
2021/09/11 11:04:32;;;;;;;;;;;20.70;99.90;;;;;;1877413;76;20396;-69
2021/09/11 11:07:00;;;;;;;;;;;20.40;99.90;;;;;;1881859;74;20214;-69
2021/09/11 11:09:27;;;;;;;;;;;20.40;99.90;;;;;;1876743;75;20177;-70
2021/09/11 11:11:55;;;;;;;;;;;20.40;99.90;;;;;;1878978;76;20219;-69
2021/09/11 11:14:22;;;;;;;;;;;20.40;99.90;;;;;;1877995;76;20204;-69
2021/09/11 11:16:50;;;;;;;;;;;20.40;99.90;;;;;;1875565;75;20231;-70
2021/09/11 11:19:27;;;;;;;;;;;20.40;99.90;;;;;;1881115;76;20191;-70
2021/09/11 11:21:59;;;;;;;;;;;20.40;99.90;;;;;;1879963;76;20424;-70
2021/09/11 11:24:27;;;;;;;;;;;20.40;99.90;;;;;;1882345;76;20828;-69
2021/09/11 11:26:54;;;;;;;;;;;20.30;99.90;;;;;;1877028;76;20218;-68
2021/09/11 11:29:21;;;;;;;;;;;20.30;99.90;;;;;;1880648;76;20271;-69
2021/09/11 11:31:48;;;;;;;;;;;20.30;99.90;;;;;;1886406;76;20501;-69
2021/09/11 11:34:15;;;;;;;;;;;20.30;99.90;;;;;;1875888;76;20182;-69
2021/09/11 11:36:53;;;;;;;;;;;20.40;99.90;;;;;;1888469;73;20207;-69
2021/09/11 11:39:21;;;;;;;;;;;20.40;99.90;;;;;;1883951;74;20172;-69
2021/09/11 11:41:55;;;;;;;;;;;20.30;99.90;;;;;;1888699;74;20179;-77
2021/09/11 11:44:22;;;;;;;;;;;20.40;99.90;;;;;;1885251;74;20585;-70
2021/09/11 11:46:50;;;;;;;;;;;20.50;99.90;;;;;;1868278;74;20573;-69
2021/09/11 11:49:17;;;;;;;;;;;20.50;99.90;;;;;;1849056;76;20168;-69
2021/09/11 11:51:46;;;;;;;;;;;20.40;99.90;;;;;;1858345;75;20409;-69
2021/09/11 11:54:12;;;;;;;;;;;20.40;99.90;;;;;;1858529;75;20170;-68
2021/09/11 11:56:46;;;;;;;;;;;20.50;99.90;;;;;;1855974;75;20272;-69
2021/09/11 11:59:13;;;;;;;;;;;20.60;99.90;;;;;;1864247;75;20172;-69
2021/09/11 12:01:40;;;;;;;;;;;20.60;99.90;;;;;;1858062;75;20430;-68
2021/09/11 12:04:16;;;;;;;;;;;20.60;99.90;;;;;;1851202;75;20217;-69
2021/09/11 12:06:50;;;;;;;;;;;20.50;99.90;;;;;;1859466;75;20177;-68
2021/09/11 12:09:18;;;;;;;;;;;20.50;99.90;;;;;;1859255;75;20280;-68
2021/09/11 12:11:48;;;;;;;;;;;20.50;99.90;;;;;;1862314;75;20184;-68
2021/09/11 12:14:16;;;;;;;;;;;20.40;99.90;;;;;;1854411;76;20120;-67
2021/09/11 12:16:44;;;;;;;;;;;20.30;99.90;;;;;;1854897;76;20167;-67
2021/09/11 12:19:11;;;;;;;;;;;20.40;99.90;;;;;;1859141;76;20127;-67
2021/09/11 12:21:38;;;;;;;;;;;20.40;99.90;;;;;;1848836;77;20210;-67
2021/09/11 12:24:05;;;;;;;;;;;20.30;99.90;;;;;;1852141;76;20387;-67
2021/09/11 12:26:33;;;;;;;;;;;20.30;99.90;;;;;;1862337;76;20170;-67
2021/09/11 12:29:09;;;;;;;;;;;20.40;99.90;;;;;;1863320;76;20133;-67
2021/09/11 12:31:42;;;;;;;;;;;20.40;99.90;;;;;;1880068;75;20174;-67
2021/09/11 12:34:19;;;;;;;;;;;20.40;99.90;;;;;;1871520;76;20158;-67
2021/09/11 12:36:49;;;;;;;;;;;20.40;99.90;;;;;;1866816;76;20148;-67
2021/09/11 12:39:17;;;;;;;;;;;20.40;99.90;;;;;;1873433;75;20252;-67
2021/09/11 12:41:45;;;;;;;;;;;20.40;99.90;;;;;;1855640;75;20179;-67
2021/09/11 12:44:12;;;;;;;;;;;20.40;99.90;;;;;;1868784;75;20168;-67
2021/09/11 12:46:40;;;;;;;;;;;20.40;99.90;;;;;;1870905;75;20125;-67
2021/09/11 12:49:09;;;;;;;;;;;20.50;99.90;;;;;;1874910;76;20172;-67
2021/09/11 12:51:39;;;;;;;;;;;20.50;99.90;;;;;;1870596;76;20250;-67
2021/09/11 12:54:05;;;;;;;;;;;20.40;99.90;;;;;;1877404;76;20231;-68
2021/09/11 12:56:32;;;;;;;;;;;20.50;99.90;;;;;;1871493;75;20276;-68
2021/09/11 12:59:00;;;;;;;;;;;20.40;99.90;;;;;;1876787;76;20149;-68
2021/09/11 13:01:27;;;;;;;;;;;20.30;99.90;;;;;;1872500;75;20165;-67
2021/09/11 13:03:55;;;;;;;;;;;20.30;99.90;;;;;;1854591;76;20153;-67
2021/09/11 13:06:22;;;;;;;;;;;20.40;99.90;;;;;;1867412;75;20110;-68
2021/09/11 13:08:49;;;;;;;;;;;20.40;99.90;;;;;;1876513;75;20172;-68
2021/09/11 13:11:17;;;;;;;;;;;20.40;99.90;;;;;;1853251;76;20176;-68
2021/09/11 13:13:44;;;;;;;;;;;20.40;99.90;;;;;;1874225;75;20169;-68
2021/09/11 13:16:10;;;;;;;;;;;20.40;99.90;;;;;;1863593;75;20216;-68
2021/09/11 13:18:38;;;;;;;;;;;20.40;99.90;;;;;;1855799;76;20457;-68
2021/09/11 13:21:09;;;;;;;;;;;20.30;99.90;;;;;;1845282;75;20475;-68
2021/09/11 13:23:40;;;;;;;;;;;20.40;99.90;;;;;;1866232;77;20311;-68
2021/09/11 13:26:07;;;;;;;;;;;20.40;99.90;;;;;;1861359;75;20241;-67
2021/09/11 13:28:34;;;;;;;;;;;20.40;99.90;;;;;;1860245;77;20161;-67
2021/09/11 13:31:01;;;;;;;;;;;20.40;99.90;;;;;;1855543;75;20195;-67
2021/09/11 13:33:27;;;;;;;;;;;20.40;99.90;;;;;;1870240;75;20207;-67
2021/09/11 13:35:54;;;;;;;;;;;20.40;99.90;;;;;;1861418;75;20112;-68
2021/09/11 13:38:21;;;;;;;;;;;20.40;99.90;;;;;;1852387;76;20517;-68
2021/09/11 13:40:48;;;;;;;;;;;20.50;99.90;;;;;;1871488;75;20180;-68
2021/09/11 13:43:15;;;;;;;;;;;20.50;99.90;;;;;;1861394;76;20121;-68
2021/09/11 13:45:41;;;;;;;;;;;20.50;99.90;;;;;;1872647;75;20215;-68
2021/09/11 13:48:08;;;;;;;;;;;20.50;99.90;;;;;;1870301;75;20265;-68
2021/09/11 13:50:35;;;;;;;;;;;20.40;99.90;;;;;;1867889;75;20424;-68
2021/09/11 13:53:02;;;;;;;;;;;20.30;99.90;;;;;;1871805;76;20184;-68
2021/09/11 13:55:29;;;;;;;;;;;20.30;99.90;;;;;;1875079;75;20512;-68
2021/09/11 13:57:57;;;;;;;;;;;20.30;99.90;;;;;;1855322;77;20312;-68
2021/09/11 14:00:24;;;;;;;;;;;20.30;99.90;;;;;;1854991;75;20171;-67
2021/09/11 14:02:50;;;;;;;;;;;20.30;99.90;;;;;;1875420;76;20153;-67
2021/09/11 14:05:17;;;;;;;;;;;20.30;99.90;;;;;;1874023;75;20165;-67
2021/09/11 14:07:44;;;;;;;;;;;20.30;99.90;;;;;;1873411;75;20169;-67
2021/09/11 14:10:12;;;;;;;;;;;20.40;99.90;;;;;;1872612;75;20298;-67
2021/09/11 14:12:38;;;;;;;;;;;20.40;99.90;;;;;;1875705;75;20165;-67
2021/09/11 14:15:06;;;;;;;;;;;20.50;99.90;;;;;;1860866;76;20222;-68
2021/09/11 14:17:32;;;;;;;;;;;20.40;99.90;;;;;;1841361;75;20209;-67
2021/09/11 14:19:59;;;;;;;;;;;20.50;99.90;;;;;;1870973;75;20180;-67